createdAt,value
2023-04-03T00:00:17.318Z,83.00
2023-04-03T00:03:02.730Z,82.80
2023-04-03T00:05:48.133Z,82.70
2023-04-03T00:08:34.194Z,82.70
2023-04-03T00:11:23.344Z,82.70
2023-04-03T00:14:08.861Z,82.50
2023-04-03T00:16:55.021Z,82.50
2023-04-03T00:19:40.358Z,82.50
2023-04-03T00:22:27.648Z,82.30
2023-04-03T00:25:13.816Z,82.30
2023-04-03T00:27:59.512Z,82.10
2023-04-03T00:30:45.415Z,81.90
2023-04-03T00:33:30.830Z,81.80
2023-04-03T00:36:16.205Z,81.40
2023-04-03T00:39:01.622Z,81.50
2023-04-03T00:41:48.091Z,81.50
2023-04-03T00:44:39.975Z,81.40
2023-04-03T00:47:26.387Z,81.10
2023-04-03T00:50:12.052Z,81.10
2023-04-03T00:52:58.509Z,81.00
2023-04-03T00:55:44.796Z,81.20
2023-04-03T00:58:42.668Z,81.30
2023-04-03T01:01:29.538Z,81.20
2023-04-03T01:04:39.703Z,81.00
2023-04-03T01:07:29.984Z,81.10
2023-04-03T01:10:17.265Z,81.20
2023-04-03T01:13:02.955Z,81.20
2023-04-03T01:15:48.451Z,81.00
2023-04-03T01:18:35.489Z,81.00
2023-04-03T01:21:33.499Z,81.00
2023-04-03T01:24:26.401Z,81.10
2023-04-03T01:27:13.039Z,81.20
2023-04-03T01:29:59.572Z,81.20
2023-04-03T01:32:45.204Z,81.20
2023-04-03T01:35:31.967Z,81.50
2023-04-03T01:38:17.531Z,81.40
2023-04-03T01:41:02.598Z,81.60
2023-04-03T01:43:50.055Z,81.70
2023-04-03T01:46:35.764Z,81.80
2023-04-03T01:49:24.448Z,81.80
2023-04-03T01:52:10.302Z,82.00
2023-04-03T01:54:56.039Z,82.10
2023-04-03T01:57:41.557Z,82.10
2023-04-03T02:00:33.275Z,82.50
2023-04-03T02:03:19.716Z,83.10
2023-04-03T02:06:05.769Z,82.20
2023-04-03T02:08:51.399Z,82.20
2023-04-03T02:11:39.918Z,82.60
2023-04-03T02:14:28.478Z,82.50
2023-04-03T02:17:16.526Z,82.20
2023-04-03T02:20:01.809Z,82.70
2023-04-03T02:22:47.395Z,82.60
2023-04-03T02:25:38.502Z,83.00
2023-04-03T02:28:24.001Z,83.30
2023-04-03T02:31:11.269Z,83.70
2023-04-03T02:33:58.678Z,83.80
2023-04-03T02:36:45.225Z,83.70
2023-04-03T02:39:32.147Z,83.70
2023-04-03T02:42:18.744Z,83.90
2023-04-03T02:45:04.775Z,83.90
2023-04-03T02:47:53.557Z,84.20
2023-04-03T02:50:39.112Z,84.30
2023-04-03T02:53:24.985Z,84.40
2023-04-03T02:56:12.193Z,84.40
2023-04-03T02:58:57.849Z,84.70
2023-04-03T03:01:43.718Z,84.70
2023-04-03T03:04:29.390Z,83.70
2023-04-03T03:07:21.740Z,84.50
2023-04-03T03:10:07.501Z,84.70
2023-04-03T03:12:54.477Z,85.10
2023-04-03T03:15:39.811Z,85.20
2023-04-03T03:18:25.917Z,85.40
2023-04-03T03:21:12.168Z,85.60
2023-04-03T03:23:57.156Z,85.70
2023-04-03T03:26:43.819Z,86.00
2023-04-03T03:29:29.297Z,86.10
2023-04-03T03:32:14.653Z,86.10
2023-04-03T03:35:00.214Z,86.20
2023-04-03T03:37:46.028Z,86.00
2023-04-03T03:40:31.963Z,86.20
2023-04-03T03:43:18.034Z,86.50
2023-04-03T03:46:05.521Z,86.40
2023-04-03T03:48:51.134Z,86.70
2023-04-03T03:51:36.611Z,86.60
2023-04-03T03:54:22.291Z,86.70
2023-04-03T03:57:08.189Z,87.20
2023-04-03T03:59:53.800Z,87.20
2023-04-03T04:02:39.738Z,87.20
2023-04-03T04:05:25.245Z,87.20
2023-04-03T04:08:12.276Z,87.40
2023-04-03T04:10:58.535Z,87.40
2023-04-03T04:13:44.003Z,87.60
2023-04-03T04:16:30.896Z,87.60
2023-04-03T04:19:20.657Z,87.60
2023-04-03T04:22:06.216Z,87.50
2023-04-03T04:24:52.121Z,87.70
2023-04-03T04:27:38.267Z,87.80
2023-04-03T04:30:24.837Z,88.20
2023-04-03T04:33:15.344Z,88.20
2023-04-03T04:36:04.477Z,88.30
2023-04-03T04:38:53.706Z,88.40
2023-04-03T04:41:41.125Z,88.60
2023-04-03T04:44:27.780Z,88.70
2023-04-03T04:47:13.133Z,88.50
2023-04-03T04:49:59.642Z,88.70
2023-04-03T04:52:46.300Z,88.40
2023-04-03T04:55:31.925Z,89.00
2023-04-03T04:58:17.433Z,89.20
2023-04-03T05:01:08.987Z,89.10
2023-04-03T05:03:58.820Z,89.40
2023-04-03T05:06:47.823Z,89.70
2023-04-03T05:09:37.426Z,89.60
2023-04-03T05:12:23.079Z,89.30
2023-04-03T05:15:14.260Z,89.80
2023-04-03T05:18:00.780Z,90.00
2023-04-03T05:20:49.004Z,90.00
2023-04-03T05:23:34.796Z,89.90
2023-04-03T05:26:22.233Z,89.90
2023-04-03T05:29:09.254Z,90.00
2023-04-03T05:31:55.477Z,90.10
2023-04-03T05:34:41.256Z,90.40
2023-04-03T05:37:27.131Z,90.50
2023-04-03T05:40:13.838Z,90.40
2023-04-03T05:43:02.375Z,90.20
2023-04-03T05:45:53.097Z,90.30
2023-04-03T05:48:40.897Z,90.50
2023-04-03T05:51:36.049Z,90.50
2023-04-03T05:54:31.052Z,90.60
2023-04-03T05:57:33.179Z,90.50
2023-04-03T06:00:19.319Z,90.40
2023-04-03T06:03:14.366Z,90.50
2023-04-03T06:06:00.528Z,90.50
2023-04-03T06:08:45.823Z,90.50
2023-04-03T06:11:31.055Z,90.60
2023-04-03T06:14:18.569Z,90.70
2023-04-03T06:17:05.476Z,90.90
2023-04-03T06:19:51.602Z,90.70
2023-04-03T06:22:41.165Z,90.70
2023-04-03T06:25:27.652Z,90.80
2023-04-03T06:28:13.354Z,90.70
2023-04-03T06:31:01.540Z,90.90
2023-04-03T06:33:50.988Z,90.90
2023-04-03T06:36:37.215Z,90.90
2023-04-03T06:39:23.800Z,90.90
2023-04-03T06:42:09.226Z,90.90
2023-04-03T06:44:59.521Z,90.80
2023-04-03T06:47:46.187Z,90.80
2023-04-03T06:50:32.244Z,90.80
2023-04-03T06:53:17.452Z,90.70
2023-04-03T06:56:03.795Z,90.60
2023-04-03T06:58:49.534Z,90.70
2023-04-03T07:01:35.418Z,90.60
2023-04-03T07:04:23.683Z,90.60
2023-04-03T07:07:09.298Z,90.50
2023-04-03T07:09:54.772Z,90.50
2023-04-03T07:12:40.555Z,90.40
2023-04-03T07:15:25.820Z,90.40
2023-04-03T07:18:11.429Z,90.30
2023-04-03T07:20:56.860Z,90.30
2023-04-03T07:23:42.538Z,90.20
2023-04-03T07:26:28.067Z,90.10
2023-04-03T07:29:13.581Z,90.10
2023-04-03T07:31:59.280Z,90.10
2023-04-03T07:34:45.046Z,90.00
2023-04-03T07:37:30.670Z,89.50
2023-04-03T07:40:15.981Z,89.00
2023-04-03T07:43:07.118Z,89.00
2023-04-03T07:45:52.902Z,89.00
2023-04-03T07:48:38.550Z,89.00
2023-04-03T07:51:25.669Z,88.70
2023-04-03T07:54:11.324Z,88.50
2023-04-03T07:56:57.750Z,88.30
2023-04-03T07:59:43.891Z,88.00
2023-04-03T08:02:29.282Z,87.10
2023-04-03T08:05:14.774Z,87.00
2023-04-03T08:08:03.222Z,87.00
2023-04-03T08:10:53.958Z,86.60
2023-04-03T08:13:39.512Z,86.30
2023-04-03T08:16:28.732Z,85.90
2023-04-03T08:19:25.311Z,85.60
2023-04-03T08:22:20.888Z,84.90
2023-04-03T08:25:06.927Z,84.40
2023-04-03T08:27:53.705Z,83.60
2023-04-03T08:30:43.514Z,82.70
2023-04-03T08:33:29.080Z,82.30
2023-04-03T08:36:23.952Z,81.90
2023-04-03T08:39:10.204Z,81.60
2023-04-03T08:42:00.573Z,81.30
2023-04-03T08:44:53.742Z,81.50
2023-04-03T08:47:47.294Z,80.40
2023-04-03T08:50:40.368Z,79.00
2023-04-03T08:53:35.506Z,77.60
2023-04-03T08:56:23.946Z,76.80
2023-04-03T08:59:28.756Z,76.00
2023-04-03T09:02:27.454Z,74.10
2023-04-03T09:05:20.254Z,71.70
2023-04-03T09:08:27.473Z,71.30
2023-04-03T09:11:44.536Z,70.60
2023-04-03T09:14:48.465Z,69.60
2023-04-03T09:17:47.010Z,68.10
2023-04-03T09:20:59.406Z,66.40
2023-04-03T09:23:52.516Z,66.00
2023-04-03T09:27:00.843Z,64.30
2023-04-03T09:29:47.164Z,64.50
2023-04-03T09:32:36.313Z,63.50
2023-04-03T09:35:40.580Z,63.40
2023-04-03T09:38:34.886Z,61.30
2023-04-03T09:41:20.425Z,58.20
2023-04-03T09:44:22.639Z,57.20
2023-04-03T09:47:31.157Z,57.20
2023-04-03T09:50:22.927Z,56.90
2023-04-03T09:53:31.915Z,56.30
2023-04-03T09:56:17.347Z,56.40
2023-04-03T09:59:02.916Z,55.80
2023-04-03T10:02:25.301Z,54.40
2023-04-03T10:05:31.216Z,53.30
2023-04-03T10:08:16.752Z,52.40
2023-04-03T10:11:12.223Z,51.30
2023-04-03T10:14:00.685Z,51.40
2023-04-03T10:16:54.105Z,51.70
2023-04-03T10:19:48.124Z,51.70
2023-04-03T10:22:51.622Z,50.80
2023-04-03T10:26:02.669Z,48.40
2023-04-03T10:29:12.615Z,47.90
2023-04-03T10:32:02.813Z,46.70
2023-04-03T10:35:02.366Z,46.80
2023-04-03T10:38:24.659Z,46.50
2023-04-03T10:41:19.685Z,46.10
2023-04-03T10:44:13.799Z,45.30
2023-04-03T10:47:08.413Z,44.80
2023-04-03T10:50:22.838Z,44.40
2023-04-03T10:53:33.871Z,45.00
2023-04-03T10:56:33.901Z,45.40
2023-04-03T10:59:34.070Z,45.50
2023-04-03T11:02:29.509Z,45.20
2023-04-03T11:05:23.101Z,44.90
2023-04-03T11:08:21.209Z,44.40
2023-04-03T11:11:17.040Z,43.80
2023-04-03T11:14:22.352Z,43.00
2023-04-03T11:17:14.792Z,42.40
2023-04-03T11:20:18.424Z,42.40
2023-04-03T11:23:22.587Z,41.30
2023-04-03T11:26:17.559Z,40.00
2023-04-03T11:29:08.214Z,36.70
2023-04-03T11:32:32.771Z,36.50
2023-04-03T11:35:20.727Z,34.30
2023-04-03T11:38:07.371Z,34.00
2023-04-03T11:40:55.222Z,33.10
2023-04-03T11:43:43.888Z,30.60
2023-04-03T11:46:57.922Z,29.60
2023-04-03T11:50:04.643Z,28.10
2023-04-03T11:52:50.512Z,26.50
2023-04-03T11:55:37.029Z,26.20
2023-04-03T11:58:27.375Z,25.10
2023-04-03T12:01:33.375Z,23.70
2023-04-03T12:04:21.165Z,22.30
2023-04-03T12:07:17.729Z,21.80
2023-04-03T12:10:28.664Z,20.70
2023-04-03T12:13:18.472Z,20.60
2023-04-03T12:16:06.788Z,19.70
2023-04-03T12:18:53.645Z,20.00
2023-04-03T12:21:51.713Z,19.70
2023-04-03T12:24:40.721Z,19.00
2023-04-03T12:27:35.605Z,17.70
2023-04-03T12:30:23.526Z,17.90
2023-04-03T12:33:13.181Z,18.50
2023-04-03T12:36:24.355Z,18.30
2023-04-03T12:39:46.806Z,17.50
2023-04-03T12:42:54.776Z,17.90
2023-04-03T12:45:49.561Z,17.50
2023-04-03T12:48:45.305Z,16.70
2023-04-03T12:51:39.024Z,17.10
2023-04-03T12:54:33.622Z,16.20
2023-04-03T12:57:26.489Z,16.00
2023-04-03T13:00:30.357Z,16.00
2023-04-03T13:03:28.111Z,15.70
2023-04-03T13:06:44.875Z,15.50
2023-04-03T13:09:33.729Z,15.10
2023-04-03T13:12:19.282Z,15.10
2023-04-03T13:15:18.874Z,14.90
2023-04-03T13:18:04.620Z,14.80
2023-04-03T13:20:51.179Z,14.80
2023-04-03T13:23:41.320Z,14.50
2023-04-03T13:26:30.529Z,14.60
2023-04-03T13:29:31.149Z,14.30
2023-04-03T13:32:27.845Z,14.00
2023-04-03T13:35:42.264Z,13.50
2023-04-03T13:38:32.581Z,13.80
2023-04-03T13:41:37.638Z,13.40
2023-04-03T13:44:22.991Z,13.60
2023-04-03T13:47:11.926Z,13.40
2023-04-03T13:50:12.863Z,13.10
2023-04-03T13:53:14.589Z,13.40
2023-04-03T13:56:08.112Z,13.50
2023-04-03T13:59:05.879Z,13.50
2023-04-03T14:01:54.130Z,13.30
2023-04-03T14:04:45.824Z,13.10
2023-04-03T14:07:32.360Z,13.00
2023-04-03T14:10:18.367Z,12.80
2023-04-03T14:13:04.616Z,12.70
2023-04-03T14:15:51.824Z,12.90
2023-04-03T14:18:37.712Z,12.70
2023-04-03T14:21:23.639Z,12.60
2023-04-03T14:24:09.212Z,12.30
2023-04-03T14:26:56.464Z,12.30
2023-04-03T14:29:41.840Z,12.30
2023-04-03T14:32:28.553Z,12.30
2023-04-03T14:35:16.333Z,12.50
2023-04-03T14:38:02.850Z,12.40
2023-04-03T14:40:49.104Z,12.00
2023-04-03T14:43:34.593Z,11.50
2023-04-03T14:46:32.420Z,11.50
2023-04-03T14:49:30.516Z,11.70
2023-04-03T14:52:37.393Z,11.80
2023-04-03T14:55:24.790Z,11.50
2023-04-03T14:58:17.093Z,11.80
2023-04-03T15:01:04.133Z,11.60
2023-04-03T15:03:49.572Z,11.80
2023-04-03T15:06:35.508Z,12.10
2023-04-03T15:09:22.410Z,11.50
2023-04-03T15:12:09.949Z,11.80
2023-04-03T15:15:01.106Z,12.00
2023-04-03T15:17:54.941Z,12.00
2023-04-03T15:20:41.451Z,12.00
2023-04-03T15:23:29.457Z,11.60
2023-04-03T15:26:14.846Z,11.40
2023-04-03T15:29:00.760Z,12.00
2023-04-03T15:31:46.153Z,11.90
2023-04-03T15:34:32.178Z,12.20
2023-04-03T15:37:17.401Z,12.50
2023-04-03T15:40:07.391Z,12.60
2023-04-03T15:42:55.427Z,12.40
2023-04-03T15:45:41.928Z,12.20
2023-04-03T15:48:28.819Z,12.40
2023-04-03T15:51:14.241Z,12.40
2023-04-03T15:54:00.039Z,12.40
2023-04-03T15:56:45.630Z,12.50
2023-04-03T15:59:32.997Z,12.80
2023-04-03T16:02:18.715Z,12.60
2023-04-03T16:05:13.472Z,12.70
2023-04-03T16:08:00.660Z,12.80
2023-04-03T16:10:47.196Z,13.20
2023-04-03T16:13:34.468Z,13.10
2023-04-03T16:16:21.592Z,13.10
2023-04-03T16:19:07.326Z,13.10
2023-04-03T16:21:54.475Z,12.90
2023-04-03T16:24:39.845Z,13.30
2023-04-03T16:27:28.660Z,13.20
2023-04-03T16:30:14.208Z,13.20
2023-04-03T16:32:59.610Z,13.10
2023-04-03T16:35:45.506Z,13.30
2023-04-03T16:38:31.596Z,13.40
2023-04-03T16:41:16.884Z,13.20
2023-04-03T16:44:02.365Z,13.40
2023-04-03T16:46:48.489Z,13.70
2023-04-03T16:49:38.155Z,13.70
2023-04-03T16:52:23.817Z,13.90
2023-04-03T16:55:09.546Z,14.10
2023-04-03T16:57:55.577Z,14.30
2023-04-03T17:00:41.124Z,14.50
2023-04-03T17:03:27.012Z,14.50
2023-04-03T17:06:17.156Z,14.80
2023-04-03T17:09:03.109Z,15.30
2023-04-03T17:11:49.367Z,15.60
2023-04-03T17:14:35.165Z,15.80
2023-04-03T17:17:24.243Z,15.90
2023-04-03T17:20:11.115Z,16.30
2023-04-03T17:22:56.564Z,16.80
2023-04-03T17:25:42.221Z,16.60
2023-04-03T17:28:30.530Z,16.80
2023-04-03T17:31:16.244Z,16.80
2023-04-03T17:34:01.906Z,16.80
2023-04-03T17:36:47.889Z,17.00
2023-04-03T17:39:36.621Z,17.20
2023-04-03T17:42:22.657Z,17.70
2023-04-03T17:45:10.448Z,18.10
2023-04-03T17:47:55.930Z,18.80
2023-04-03T17:50:41.473Z,19.70
2023-04-03T17:53:27.638Z,20.70
2023-04-03T17:56:38.254Z,21.20
2023-04-03T17:59:23.955Z,22.10
2023-04-03T18:02:09.257Z,22.90
2023-04-03T18:04:54.752Z,23.70
2023-04-03T18:07:41.195Z,24.60
2023-04-03T18:10:26.792Z,25.70
2023-04-03T18:13:13.009Z,27.20
2023-04-03T18:15:58.942Z,28.70
2023-04-03T18:18:44.429Z,30.00
2023-04-03T18:21:29.682Z,31.60
2023-04-03T18:24:18.178Z,33.00
2023-04-03T18:27:26.287Z,34.50
2023-04-03T18:30:14.459Z,35.80
2023-04-03T18:33:00.255Z,36.70
2023-04-03T18:35:45.725Z,37.60
2023-04-03T18:38:31.255Z,38.50
2023-04-03T18:41:17.780Z,39.60
2023-04-03T18:44:07.012Z,40.10
2023-04-03T18:46:55.324Z,40.80
2023-04-03T18:49:42.166Z,41.50
2023-04-03T18:52:27.704Z,42.10
2023-04-03T18:55:14.111Z,42.70
2023-04-03T18:57:59.382Z,43.30
2023-04-03T19:00:44.721Z,43.90
2023-04-03T19:03:31.861Z,44.40
2023-04-03T19:06:17.393Z,45.00
2023-04-03T19:09:05.331Z,45.50
2023-04-03T19:11:51.049Z,45.80
2023-04-03T19:14:36.480Z,46.30
2023-04-03T19:17:22.163Z,46.60
2023-04-03T19:20:09.880Z,46.90
2023-04-03T19:22:55.640Z,47.40
2023-04-03T19:25:41.552Z,47.70
2023-04-03T19:28:27.158Z,48.10
2023-04-03T19:31:15.484Z,48.40
2023-04-03T19:34:02.609Z,48.80
2023-04-03T19:36:48.335Z,49.00
2023-04-03T19:39:35.330Z,49.40
2023-04-03T19:42:21.627Z,49.60
2023-04-03T19:45:08.020Z,50.00
2023-04-03T19:47:53.734Z,50.30
2023-04-03T19:50:39.085Z,50.80
2023-04-03T19:53:28.991Z,50.80
2023-04-03T19:56:18.771Z,51.20
2023-04-03T19:59:04.419Z,51.40
2023-04-03T20:01:50.442Z,51.70
2023-04-03T20:04:41.389Z,52.00
2023-04-03T20:07:28.428Z,52.30
2023-04-03T20:10:15.504Z,52.40
2023-04-03T20:13:01.376Z,52.70
2023-04-03T20:15:47.316Z,53.20
2023-04-03T20:18:33.386Z,53.30
2023-04-03T20:21:19.003Z,54.10
2023-04-03T20:24:09.285Z,54.60
2023-04-03T20:26:57.750Z,54.90
2023-04-03T20:29:45.633Z,55.40
2023-04-03T20:32:33.844Z,56.00
2023-04-03T20:35:22.205Z,56.00
2023-04-03T20:38:07.858Z,56.50
2023-04-03T20:40:54.013Z,56.70
2023-04-03T20:43:39.912Z,56.90
2023-04-03T20:46:38.393Z,57.10
2023-04-03T20:49:33.885Z,57.00
2023-04-03T20:52:19.497Z,57.10
2023-04-03T20:55:11.179Z,57.00
2023-04-03T20:58:01.110Z,57.10
2023-04-03T21:00:46.660Z,57.80
2023-04-03T21:03:32.383Z,57.60
2023-04-03T21:06:55.582Z,57.50
2023-04-03T21:10:20.207Z,57.50
2023-04-03T21:13:43.513Z,57.60
2023-04-03T21:16:28.868Z,58.00
2023-04-03T21:19:20.488Z,58.10
2023-04-03T21:22:05.795Z,58.20
2023-04-03T21:25:00.437Z,58.30
2023-04-03T21:27:45.955Z,58.50
2023-04-03T21:30:31.557Z,58.60
2023-04-03T21:33:17.449Z,58.50
2023-04-03T21:36:03.762Z,58.70
2023-04-03T21:38:51.479Z,58.70
2023-04-03T21:41:37.392Z,58.70
2023-04-03T21:44:23.405Z,59.30
2023-04-03T21:47:08.858Z,59.00
2023-04-03T21:49:55.327Z,59.20
2023-04-03T21:52:40.848Z,59.40
2023-04-03T21:55:26.152Z,59.40
2023-04-03T21:58:11.770Z,59.50
2023-04-03T22:00:57.481Z,59.50
2023-04-03T22:03:44.681Z,59.50
2023-04-03T22:06:33.064Z,59.50
2023-04-03T22:09:18.508Z,59.90
2023-04-03T22:12:04.876Z,60.80
2023-04-03T22:14:50.300Z,60.10
2023-04-03T22:17:35.900Z,60.60
2023-04-03T22:20:24.855Z,60.60
2023-04-03T22:23:10.411Z,60.70
2023-04-03T22:26:08.532Z,61.20
2023-04-03T22:28:53.867Z,61.60
2023-04-03T22:31:41.849Z,62.30
2023-04-03T22:34:30.433Z,62.90
2023-04-03T22:37:15.658Z,63.30
2023-04-03T22:40:01.656Z,63.40
2023-04-03T22:42:48.572Z,63.60
2023-04-03T22:45:36.933Z,63.50
2023-04-03T22:48:23.724Z,63.90
2023-04-03T22:51:09.293Z,63.90
2023-04-03T22:53:59.618Z,64.00
2023-04-03T22:56:45.037Z,64.10
2023-04-03T22:59:30.928Z,64.20
2023-04-03T23:02:16.474Z,64.60
2023-04-03T23:05:01.870Z,64.60
2023-04-03T23:07:53.208Z,64.50
2023-04-03T23:10:41.331Z,64.60
2023-04-03T23:13:27.307Z,64.90
2023-04-03T23:16:13.292Z,65.30
2023-04-03T23:18:59.065Z,65.20
2023-04-03T23:21:48.074Z,64.80
2023-04-03T23:24:34.243Z,65.10
2023-04-03T23:27:19.616Z,65.30
2023-04-03T23:30:09.152Z,65.60
2023-04-03T23:32:54.673Z,65.90
2023-04-03T23:35:48.349Z,66.50
2023-04-03T23:38:34.836Z,66.80
2023-04-03T23:41:20.935Z,67.40
2023-04-03T23:44:06.618Z,67.90
2023-04-03T23:46:52.131Z,68.40
2023-04-03T23:49:37.499Z,69.10
2023-04-03T23:52:23.034Z,69.30
2023-04-03T23:55:14.776Z,69.50
2023-04-03T23:58:00.246Z,70.00
